sensor_id;sensor_type;location;lat;lon;timestamp;P1;durP1;ratioP1;P2;durP2;ratioP2
13108;SDS011;6620;53.734;11.510;2023-03-20T00:02:22;2.20;;;2.10;;
13108;SDS011;6620;53.734;11.510;2023-03-20T00:04:47;2.33;;;2.22;;
13108;SDS011;6620;53.734;11.510;2023-03-20T00:07:13;2.33;;;2.20;;
13108;SDS011;6620;53.734;11.510;2023-03-20T00:09:38;2.20;;;2.10;;
13108;SDS011;6620;53.734;11.510;2023-03-20T00:12:03;4.32;;;2.10;;
13108;SDS011;6620;53.734;11.510;2023-03-20T00:14:29;2.70;;;2.50;;
13108;SDS011;6620;53.734;11.510;2023-03-20T00:16:54;2.72;;;2.53;;
13108;SDS011;6620;53.734;11.510;2023-03-20T00:19:21;2.72;;;2.53;;
13108;SDS011;6620;53.734;11.510;2023-03-20T00:21:55;2.88;;;2.67;;
13108;SDS011;6620;53.734;11.510;2023-03-20T00:24:21;2.75;;;2.55;;
13108;SDS011;6620;53.734;11.510;2023-03-20T00:26:47;3.45;;;3.15;;
13108;SDS011;6620;53.734;11.510;2023-03-20T00:29:20;3.38;;;3.08;;
13108;SDS011;6620;53.734;11.510;2023-03-20T00:31:46;3.15;;;2.95;;
13108;SDS011;6620;53.734;11.510;2023-03-20T00:34:12;3.33;;;3.10;;
13108;SDS011;6620;53.734;11.510;2023-03-20T00:36:38;2.78;;;2.58;;
13108;SDS011;6620;53.734;11.510;2023-03-20T00:39:03;3.53;;;3.22;;
13108;SDS011;6620;53.734;11.510;2023-03-20T00:41:30;4.13;;;3.73;;
13108;SDS011;6620;53.734;11.510;2023-03-20T00:43:57;15.60;;;5.05;;
13108;SDS011;6620;53.734;11.510;2023-03-20T00:46:23;4.25;;;3.95;;
13108;SDS011;6620;53.734;11.510;2023-03-20T00:48:48;4.30;;;4.00;;
13108;SDS011;6620;53.734;11.510;2023-03-20T00:51:13;66.75;;;7.57;;
13108;SDS011;6620;53.734;11.510;2023-03-20T00:53:40;4.70;;;4.28;;
13108;SDS011;6620;53.734;11.510;2023-03-20T00:56:05;62.43;;;12.97;;
13108;SDS011;6620;53.734;11.510;2023-03-20T00:58:30;8.98;;;8.05;;
13108;SDS011;6620;53.734;11.510;2023-03-20T01:00:55;44.73;;;15.47;;
13108;SDS011;6620;53.734;11.510;2023-03-20T01:03:25;29.40;;;16.20;;
13108;SDS011;6620;53.734;11.510;2023-03-20T01:05:50;35.45;;;17.30;;
13108;SDS011;6620;53.734;11.510;2023-03-20T01:08:17;49.70;;;19.42;;
13108;SDS011;6620;53.734;11.510;2023-03-20T01:10:43;19.98;;;15.82;;
13108;SDS011;6620;53.734;11.510;2023-03-20T01:13:14;25.40;;;16.85;;
13108;SDS011;6620;53.734;11.510;2023-03-20T01:15:41;84.40;;;24.45;;
13108;SDS011;6620;53.734;11.510;2023-03-20T01:18:09;24.42;;;19.38;;
13108;SDS011;6620;53.734;11.510;2023-03-20T01:20:36;27.35;;;18.52;;
13108;SDS011;6620;53.734;11.510;2023-03-20T01:23:03;59.83;;;25.90;;
13108;SDS011;6620;53.734;11.510;2023-03-20T01:25:28;30.53;;;21.10;;
13108;SDS011;6620;53.734;11.510;2023-03-20T01:27:53;162.43;;;35.93;;
13108;SDS011;6620;53.734;11.510;2023-03-20T01:30:23;47.50;;;25.85;;
13108;SDS011;6620;53.734;11.510;2023-03-20T01:32:48;34.67;;;22.90;;
13108;SDS011;6620;53.734;11.510;2023-03-20T01:35:14;39.65;;;25.10;;
13108;SDS011;6620;53.734;11.510;2023-03-20T01:37:40;34.08;;;24.70;;
13108;SDS011;6620;53.734;11.510;2023-03-20T01:42:58;133.50;;;38.70;;
13108;SDS011;6620;53.734;11.510;2023-03-20T01:45:25;46.72;;;28.35;;
13108;SDS011;6620;53.734;11.510;2023-03-20T01:47:50;56.15;;;30.67;;
13108;SDS011;6620;53.734;11.510;2023-03-20T01:52:46;57.83;;;31.60;;
13108;SDS011;6620;53.734;11.510;2023-03-20T01:55:12;47.55;;;29.52;;
13108;SDS011;6620;53.734;11.510;2023-03-20T01:57:38;41.80;;;28.45;;
13108;SDS011;6620;53.734;11.510;2023-03-20T02:00:10;48.35;;;28.63;;
13108;SDS011;6620;53.734;11.510;2023-03-20T02:02:37;56.97;;;32.00;;
13108;SDS011;6620;53.734;11.510;2023-03-20T02:05:05;46.53;;;28.92;;
13108;SDS011;6620;53.734;11.510;2023-03-20T02:07:32;43.40;;;28.65;;
13108;SDS011;6620;53.734;11.510;2023-03-20T02:09:58;48.33;;;29.27;;
13108;SDS011;6620;53.734;11.510;2023-03-20T02:12:24;63.92;;;33.95;;
13108;SDS011;6620;53.734;11.510;2023-03-20T02:14:49;45.50;;;26.52;;
13108;SDS011;6620;53.734;11.510;2023-03-20T02:17:16;65.95;;;32.92;;
13108;SDS011;6620;53.734;11.510;2023-03-20T02:33:15;48.47;;;25.92;;
13108;SDS011;6620;53.734;11.510;2023-03-20T02:35:52;42.08;;;24.25;;
13108;SDS011;6620;53.734;11.510;2023-03-20T02:41:23;32.83;;;15.82;;
13108;SDS011;6620;53.734;11.510;2023-03-20T02:49:07;37.30;;;20.38;;
13108;SDS011;6620;53.734;11.510;2023-03-20T02:51:38;43.20;;;20.15;;
13108;SDS011;6620;53.734;11.510;2023-03-20T02:54:09;44.33;;;22.02;;
13108;SDS011;6620;53.734;11.510;2023-03-20T03:01:35;38.13;;;19.92;;
13108;SDS011;6620;53.734;11.510;2023-03-20T03:04:03;38.63;;;21.20;;
13108;SDS011;6620;53.734;11.510;2023-03-20T03:06:31;35.88;;;19.27;;
13108;SDS011;6620;53.734;11.510;2023-03-20T03:09:13;37.15;;;19.23;;
13108;SDS011;6620;53.734;11.510;2023-03-20T03:11:40;34.50;;;17.75;;
13108;SDS011;6620;53.734;11.510;2023-03-20T03:14:08;41.90;;;21.98;;
13108;SDS011;6620;53.734;11.510;2023-03-20T03:16:37;37.08;;;17.85;;
13108;SDS011;6620;53.734;11.510;2023-03-20T03:19:08;40.40;;;19.88;;
13108;SDS011;6620;53.734;11.510;2023-03-20T03:21:34;37.13;;;19.67;;
13108;SDS011;6620;53.734;11.510;2023-03-20T03:24:01;37.00;;;18.83;;
13108;SDS011;6620;53.734;11.510;2023-03-20T03:26:28;37.97;;;18.88;;
13108;SDS011;6620;53.734;11.510;2023-03-20T03:29:06;34.42;;;18.88;;
13108;SDS011;6620;53.734;11.510;2023-03-20T03:31:34;44.85;;;21.88;;
13108;SDS011;6620;53.734;11.510;2023-03-20T03:34:01;38.20;;;18.85;;
13108;SDS011;6620;53.734;11.510;2023-03-20T03:36:45;38.25;;;20.30;;
13108;SDS011;6620;53.734;11.510;2023-03-20T03:42:08;34.67;;;18.63;;
13108;SDS011;6620;53.734;11.510;2023-03-20T03:44:44;35.33;;;18.30;;
13108;SDS011;6620;53.734;11.510;2023-03-20T03:47:15;36.78;;;19.30;;
13108;SDS011;6620;53.734;11.510;2023-03-20T03:49:46;37.53;;;18.65;;
13108;SDS011;6620;53.734;11.510;2023-03-20T03:52:14;39.50;;;19.48;;
13108;SDS011;6620;53.734;11.510;2023-03-20T03:54:42;37.83;;;19.95;;
13108;SDS011;6620;53.734;11.510;2023-03-20T03:57:08;37.22;;;19.23;;
13108;SDS011;6620;53.734;11.510;2023-03-20T03:59:35;36.60;;;19.08;;
13108;SDS011;6620;53.734;11.510;2023-03-20T04:02:02;36.58;;;19.27;;
13108;SDS011;6620;53.734;11.510;2023-03-20T04:04:29;34.15;;;18.73;;
13108;SDS011;6620;53.734;11.510;2023-03-20T04:06:55;37.38;;;19.33;;
13108;SDS011;6620;53.734;11.510;2023-03-20T04:09:20;34.60;;;18.88;;
13108;SDS011;6620;53.734;11.510;2023-03-20T04:11:46;35.90;;;18.20;;
13108;SDS011;6620;53.734;11.510;2023-03-20T04:14:13;36.10;;;17.83;;
13108;SDS011;6620;53.734;11.510;2023-03-20T04:16:38;38.57;;;19.97;;
13108;SDS011;6620;53.734;11.510;2023-03-20T04:19:03;38.75;;;20.25;;
13108;SDS011;6620;53.734;11.510;2023-03-20T04:21:29;37.85;;;19.90;;
13108;SDS011;6620;53.734;11.510;2023-03-20T04:23:54;37.83;;;20.37;;
13108;SDS011;6620;53.734;11.510;2023-03-20T04:26:19;41.10;;;18.90;;
13108;SDS011;6620;53.734;11.510;2023-03-20T04:28:45;38.50;;;20.02;;
13108;SDS011;6620;53.734;11.510;2023-03-20T04:31:10;45.93;;;22.93;;
13108;SDS011;6620;53.734;11.510;2023-03-20T04:33:36;46.05;;;22.30;;
13108;SDS011;6620;53.734;11.510;2023-03-20T04:36:01;39.63;;;19.95;;
13108;SDS011;6620;53.734;11.510;2023-03-20T04:38:27;41.13;;;20.98;;
13108;SDS011;6620;53.734;11.510;2023-03-20T04:40:52;48.47;;;23.13;;
13108;SDS011;6620;53.734;11.510;2023-03-20T04:43:17;46.63;;;22.48;;
13108;SDS011;6620;53.734;11.510;2023-03-20T04:45:43;44.10;;;22.67;;
13108;SDS011;6620;53.734;11.510;2023-03-20T04:48:08;45.50;;;23.27;;
13108;SDS011;6620;53.734;11.510;2023-03-20T04:50:33;50.90;;;24.53;;
13108;SDS011;6620;53.734;11.510;2023-03-20T04:52:58;52.90;;;24.13;;
13108;SDS011;6620;53.734;11.510;2023-03-20T04:55:24;54.53;;;24.05;;
13108;SDS011;6620;53.734;11.510;2023-03-20T04:58:01;50.10;;;23.33;;
13108;SDS011;6620;53.734;11.510;2023-03-20T05:00:26;55.25;;;26.23;;
13108;SDS011;6620;53.734;11.510;2023-03-20T05:02:52;55.67;;;24.40;;
13108;SDS011;6620;53.734;11.510;2023-03-20T05:05:17;73.95;;;31.42;;
13108;SDS011;6620;53.734;11.510;2023-03-20T05:07:42;58.70;;;27.37;;
13108;SDS011;6620;53.734;11.510;2023-03-20T05:10:07;48.80;;;25.52;;
13108;SDS011;6620;53.734;11.510;2023-03-20T05:12:33;53.55;;;24.20;;
13108;SDS011;6620;53.734;11.510;2023-03-20T05:14:58;55.50;;;25.67;;
13108;SDS011;6620;53.734;11.510;2023-03-20T05:17:23;53.67;;;25.50;;
13108;SDS011;6620;53.734;11.510;2023-03-20T05:19:49;57.22;;;27.02;;
13108;SDS011;6620;53.734;11.510;2023-03-20T05:22:15;55.08;;;26.15;;
13108;SDS011;6620;53.734;11.510;2023-03-20T05:24:41;62.22;;;27.92;;
13108;SDS011;6620;53.734;11.510;2023-03-20T05:27:06;66.15;;;28.33;;
13108;SDS011;6620;53.734;11.510;2023-03-20T05:29:31;56.90;;;25.13;;
13108;SDS011;6620;53.734;11.510;2023-03-20T05:31:56;57.35;;;27.45;;
13108;SDS011;6620;53.734;11.510;2023-03-20T05:34:21;54.15;;;27.05;;
13108;SDS011;6620;53.734;11.510;2023-03-20T05:36:47;57.05;;;27.48;;
13108;SDS011;6620;53.734;11.510;2023-03-20T05:39:12;62.17;;;30.57;;
13108;SDS011;6620;53.734;11.510;2023-03-20T05:41:37;58.80;;;25.83;;
13108;SDS011;6620;53.734;11.510;2023-03-20T05:44:02;54.90;;;25.80;;
13108;SDS011;6620;53.734;11.510;2023-03-20T05:46:28;54.88;;;27.83;;
13108;SDS011;6620;53.734;11.510;2023-03-20T05:48:53;61.75;;;28.45;;
13108;SDS011;6620;53.734;11.510;2023-03-20T05:51:18;53.92;;;24.65;;
13108;SDS011;6620;53.734;11.510;2023-03-20T05:53:44;56.97;;;26.80;;
13108;SDS011;6620;53.734;11.510;2023-03-20T05:56:09;55.03;;;24.20;;
13108;SDS011;6620;53.734;11.510;2023-03-20T05:58:34;69.47;;;27.73;;
13108;SDS011;6620;53.734;11.510;2023-03-20T06:01:00;60.33;;;26.55;;
13108;SDS011;6620;53.734;11.510;2023-03-20T06:03:25;64.27;;;26.40;;
13108;SDS011;6620;53.734;11.510;2023-03-20T06:05:51;64.87;;;27.90;;
13108;SDS011;6620;53.734;11.510;2023-03-20T06:08:16;59.53;;;27.92;;
13108;SDS011;6620;53.734;11.510;2023-03-20T06:10:41;53.08;;;24.58;;
13108;SDS011;6620;53.734;11.510;2023-03-20T06:13:06;49.45;;;24.50;;
13108;SDS011;6620;53.734;11.510;2023-03-20T06:15:32;56.58;;;26.20;;
13108;SDS011;6620;53.734;11.510;2023-03-20T06:17:57;50.42;;;22.45;;
13108;SDS011;6620;53.734;11.510;2023-03-20T06:20:23;46.97;;;22.52;;
13108;SDS011;6620;53.734;11.510;2023-03-20T06:22:48;48.90;;;24.08;;
13108;SDS011;6620;53.734;11.510;2023-03-20T06:25:13;50.55;;;22.23;;
13108;SDS011;6620;53.734;11.510;2023-03-20T06:27:38;42.67;;;19.03;;
13108;SDS011;6620;53.734;11.510;2023-03-20T06:30:04;43.03;;;19.33;;
13108;SDS011;6620;53.734;11.510;2023-03-20T06:32:30;40.70;;;19.17;;
13108;SDS011;6620;53.734;11.510;2023-03-20T06:34:55;45.15;;;21.10;;
13108;SDS011;6620;53.734;11.510;2023-03-20T06:37:20;44.43;;;18.10;;
13108;SDS011;6620;53.734;11.510;2023-03-20T06:39:45;35.90;;;17.80;;
13108;SDS011;6620;53.734;11.510;2023-03-20T06:42:11;39.53;;;18.10;;
13108;SDS011;6620;53.734;11.510;2023-03-20T06:44:37;34.03;;;16.95;;
13108;SDS011;6620;53.734;11.510;2023-03-20T06:47:02;39.20;;;16.83;;
13108;SDS011;6620;53.734;11.510;2023-03-20T06:49:27;32.83;;;15.10;;
13108;SDS011;6620;53.734;11.510;2023-03-20T06:51:52;36.30;;;15.30;;
13108;SDS011;6620;53.734;11.510;2023-03-20T06:54:17;31.20;;;15.20;;
13108;SDS011;6620;53.734;11.510;2023-03-20T06:56:43;32.47;;;15.55;;
13108;SDS011;6620;53.734;11.510;2023-03-20T06:59:08;27.80;;;14.57;;
13108;SDS011;6620;53.734;11.510;2023-03-20T07:01:33;27.25;;;14.07;;
13108;SDS011;6620;53.734;11.510;2023-03-20T07:03:58;26.23;;;13.63;;
13108;SDS011;6620;53.734;11.510;2023-03-20T07:06:25;31.58;;;15.15;;
13108;SDS011;6620;53.734;11.510;2023-03-20T07:08:50;27.63;;;14.15;;
13108;SDS011;6620;53.734;11.510;2023-03-20T07:11:17;29.42;;;14.40;;
13108;SDS011;6620;53.734;11.510;2023-03-20T07:13:42;27.05;;;13.35;;
13108;SDS011;6620;53.734;11.510;2023-03-20T07:16:08;23.48;;;13.80;;
13108;SDS011;6620;53.734;11.510;2023-03-20T07:18:33;29.58;;;13.82;;
13108;SDS011;6620;53.734;11.510;2023-03-20T07:20:59;27.10;;;13.63;;
13108;SDS011;6620;53.734;11.510;2023-03-20T07:23:26;33.22;;;15.98;;
13108;SDS011;6620;53.734;11.510;2023-03-20T07:25:51;26.35;;;12.27;;
13108;SDS011;6620;53.734;11.510;2023-03-20T07:28:16;32.43;;;17.90;;
13108;SDS011;6620;53.734;11.510;2023-03-20T07:30:42;23.60;;;13.32;;
13108;SDS011;6620;53.734;11.510;2023-03-20T07:33:07;28.98;;;13.88;;
13108;SDS011;6620;53.734;11.510;2023-03-20T07:35:33;21.15;;;11.50;;
13108;SDS011;6620;53.734;11.510;2023-03-20T07:37:58;24.15;;;12.65;;
13108;SDS011;6620;53.734;11.510;2023-03-20T07:40:23;22.85;;;12.88;;
13108;SDS011;6620;53.734;11.510;2023-03-20T07:42:48;21.57;;;12.10;;
13108;SDS011;6620;53.734;11.510;2023-03-20T07:45:14;25.73;;;12.60;;
13108;SDS011;6620;53.734;11.510;2023-03-20T07:47:41;26.48;;;13.35;;
13108;SDS011;6620;53.734;11.510;2023-03-20T07:50:06;25.00;;;13.32;;
13108;SDS011;6620;53.734;11.510;2023-03-20T07:52:31;37.92;;;14.15;;
13108;SDS011;6620;53.734;11.510;2023-03-20T07:54:56;23.17;;;12.97;;
13108;SDS011;6620;53.734;11.510;2023-03-20T07:57:21;20.03;;;10.63;;
13108;SDS011;6620;53.734;11.510;2023-03-20T07:59:47;27.15;;;13.73;;
13108;SDS011;6620;53.734;11.510;2023-03-20T08:02:15;19.70;;;11.20;;
13108;SDS011;6620;53.734;11.510;2023-03-20T08:04:41;34.58;;;13.90;;
13108;SDS011;6620;53.734;11.510;2023-03-20T08:07:06;21.92;;;11.85;;
13108;SDS011;6620;53.734;11.510;2023-03-20T08:09:32;26.30;;;12.68;;
13108;SDS011;6620;53.734;11.510;2023-03-20T08:11:57;23.95;;;12.00;;
13108;SDS011;6620;53.734;11.510;2023-03-20T08:14:22;25.13;;;12.43;;
13108;SDS011;6620;53.734;11.510;2023-03-20T08:16:47;23.75;;;12.00;;
13108;SDS011;6620;53.734;11.510;2023-03-20T08:19:13;19.88;;;11.35;;
13108;SDS011;6620;53.734;11.510;2023-03-20T08:21:38;21.17;;;12.60;;
13108;SDS011;6620;53.734;11.510;2023-03-20T08:24:04;19.15;;;11.70;;
13108;SDS011;6620;53.734;11.510;2023-03-20T08:26:30;20.48;;;11.43;;
13108;SDS011;6620;53.734;11.510;2023-03-20T08:28:55;20.92;;;11.45;;
13108;SDS011;6620;53.734;11.510;2023-03-20T08:31:21;16.67;;;10.38;;
13108;SDS011;6620;53.734;11.510;2023-03-20T08:33:47;18.42;;;10.57;;
13108;SDS011;6620;53.734;11.510;2023-03-20T08:36:12;16.98;;;9.25;;
13108;SDS011;6620;53.734;11.510;2023-03-20T08:38:39;17.65;;;9.07;;
13108;SDS011;6620;53.734;11.510;2023-03-20T08:41:05;15.23;;;9.45;;
13108;SDS011;6620;53.734;11.510;2023-03-20T08:43:30;15.73;;;9.05;;
13108;SDS011;6620;53.734;11.510;2023-03-20T08:45:56;16.33;;;8.30;;
13108;SDS011;6620;53.734;11.510;2023-03-20T08:48:21;9.73;;;6.10;;
13108;SDS011;6620;53.734;11.510;2023-03-20T08:50:46;14.27;;;8.40;;
13108;SDS011;6620;53.734;11.510;2023-03-20T08:53:11;13.73;;;8.00;;
13108;SDS011;6620;53.734;11.510;2023-03-20T08:55:36;13.88;;;7.90;;
13108;SDS011;6620;53.734;11.510;2023-03-20T08:58:02;10.93;;;5.77;;
13108;SDS011;6620;53.734;11.510;2023-03-20T09:00:27;11.32;;;6.63;;
13108;SDS011;6620;53.734;11.510;2023-03-20T09:02:52;9.75;;;6.38;;
13108;SDS011;6620;53.734;11.510;2023-03-20T09:05:18;10.90;;;6.05;;
13108;SDS011;6620;53.734;11.510;2023-03-20T09:07:43;11.40;;;4.85;;
13108;SDS011;6620;53.734;11.510;2023-03-20T09:10:09;9.77;;;6.18;;
13108;SDS011;6620;53.734;11.510;2023-03-20T09:12:35;10.15;;;6.03;;
13108;SDS011;6620;53.734;11.510;2023-03-20T09:15:00;10.67;;;5.73;;
13108;SDS011;6620;53.734;11.510;2023-03-20T09:17:25;8.20;;;5.07;;
13108;SDS011;6620;53.734;11.510;2023-03-20T09:19:51;8.00;;;5.13;;
13108;SDS011;6620;53.734;11.510;2023-03-20T09:22:16;9.15;;;5.40;;
13108;SDS011;6620;53.734;11.510;2023-03-20T09:24:42;9.70;;;5.85;;
13108;SDS011;6620;53.734;11.510;2023-03-20T09:27:07;12.40;;;5.50;;
13108;SDS011;6620;53.734;11.510;2023-03-20T09:29:32;8.85;;;6.03;;
13108;SDS011;6620;53.734;11.510;2023-03-20T09:31:57;10.07;;;5.50;;
13108;SDS011;6620;53.734;11.510;2023-03-20T09:34:23;8.55;;;4.75;;
13108;SDS011;6620;53.734;11.510;2023-03-20T09:36:48;9.30;;;6.05;;
13108;SDS011;6620;53.734;11.510;2023-03-20T09:39:13;10.57;;;6.18;;
13108;SDS011;6620;53.734;11.510;2023-03-20T09:41:38;8.03;;;5.30;;
13108;SDS011;6620;53.734;11.510;2023-03-20T09:49:39;7.68;;;5.82;;
13108;SDS011;6620;53.734;11.510;2023-03-20T09:54:41;10.07;;;5.10;;
13108;SDS011;6620;53.734;11.510;2023-03-20T09:57:18;9.40;;;4.93;;
13108;SDS011;6620;53.734;11.510;2023-03-20T09:59:45;7.90;;;4.18;;
13108;SDS011;6620;53.734;11.510;2023-03-20T10:02:18;4.72;;;3.85;;
13108;SDS011;6620;53.734;11.510;2023-03-20T10:04:48;8.07;;;4.85;;
13108;SDS011;6620;53.734;11.510;2023-03-20T10:07:15;7.25;;;4.78;;
13108;SDS011;6620;53.734;11.510;2023-03-20T10:09:41;5.55;;;3.83;;
13108;SDS011;6620;53.734;11.510;2023-03-20T10:19:59;6.60;;;3.53;;
13108;SDS011;6620;53.734;11.510;2023-03-20T10:22:37;4.72;;;2.67;;
13108;SDS011;6620;53.734;11.510;2023-03-20T10:32:33;5.90;;;3.37;;
13108;SDS011;6620;53.734;11.510;2023-03-20T10:42:39;5.10;;;3.22;;
13108;SDS011;6620;53.734;11.510;2023-03-20T10:45:28;3.08;;;2.20;;
13108;SDS011;6620;53.734;11.510;2023-03-20T10:47:51;5.53;;;2.92;;
13108;SDS011;6620;53.734;11.510;2023-03-20T10:50:18;3.35;;;3.00;;
13108;SDS011;6620;53.734;11.510;2023-03-20T10:52:46;3.92;;;2.47;;
13108;SDS011;6620;53.734;11.510;2023-03-20T10:55:15;4.15;;;3.03;;
13108;SDS011;6620;53.734;11.510;2023-03-20T10:57:46;6.88;;;3.00;;
13108;SDS011;6620;53.734;11.510;2023-03-20T11:00:16;5.20;;;3.78;;
13108;SDS011;6620;53.734;11.510;2023-03-20T11:02:43;5.53;;;3.97;;
13108;SDS011;6620;53.734;11.510;2023-03-20T11:07:43;4.38;;;3.65;;
13108;SDS011;6620;53.734;11.510;2023-03-20T11:10:13;6.32;;;4.80;;
13108;SDS011;6620;53.734;11.510;2023-03-20T11:12:41;4.78;;;3.70;;
13108;SDS011;6620;53.734;11.510;2023-03-20T11:15:26;5.72;;;3.60;;
13108;SDS011;6620;53.734;11.510;2023-03-20T11:17:55;4.35;;;3.80;;
13108;SDS011;6620;53.734;11.510;2023-03-20T11:20:20;7.43;;;5.18;;
13108;SDS011;6620;53.734;11.510;2023-03-20T11:22:46;4.88;;;4.38;;
13108;SDS011;6620;53.734;11.510;2023-03-20T11:25:22;7.18;;;4.93;;
13108;SDS011;6620;53.734;11.510;2023-03-20T11:27:48;6.32;;;4.22;;
13108;SDS011;6620;53.734;11.510;2023-03-20T11:30:13;5.30;;;4.20;;
13108;SDS011;6620;53.734;11.510;2023-03-20T11:32:45;7.95;;;5.88;;
13108;SDS011;6620;53.734;11.510;2023-03-20T11:35:18;5.53;;;4.05;;
13108;SDS011;6620;53.734;11.510;2023-03-20T11:37:48;3.38;;;3.05;;
13108;SDS011;6620;53.734;11.510;2023-03-20T11:40:15;7.13;;;4.65;;
13108;SDS011;6620;53.734;11.510;2023-03-20T11:42:50;6.10;;;4.72;;
13108;SDS011;6620;53.734;11.510;2023-03-20T11:45:16;6.18;;;5.47;;
13108;SDS011;6620;53.734;11.510;2023-03-20T11:47:41;8.25;;;5.40;;
13108;SDS011;6620;53.734;11.510;2023-03-20T11:50:28;8.57;;;5.80;;
13108;SDS011;6620;53.734;11.510;2023-03-20T11:52:55;5.38;;;4.70;;
13108;SDS011;6620;53.734;11.510;2023-03-20T11:55:22;6.53;;;4.93;;
13108;SDS011;6620;53.734;11.510;2023-03-20T11:57:48;5.68;;;4.55;;
13108;SDS011;6620;53.734;11.510;2023-03-20T12:00:19;8.02;;;6.50;;
13108;SDS011;6620;53.734;11.510;2023-03-20T12:02:45;6.50;;;4.83;;
13108;SDS011;6620;53.734;11.510;2023-03-20T12:07:48;6.07;;;4.45;;
13108;SDS011;6620;53.734;11.510;2023-03-20T12:10:16;5.05;;;4.25;;
13108;SDS011;6620;53.734;11.510;2023-03-20T12:20:28;7.07;;;4.53;;
13108;SDS011;6620;53.734;11.510;2023-03-20T12:25:26;6.68;;;4.75;;
13108;SDS011;6620;53.734;11.510;2023-03-20T12:27:57;8.57;;;5.40;;
13108;SDS011;6620;53.734;11.510;2023-03-20T12:30:28;5.68;;;5.18;;
13108;SDS011;6620;53.734;11.510;2023-03-20T12:32:58;7.05;;;6.45;;
13108;SDS011;6620;53.734;11.510;2023-03-20T12:35:31;7.20;;;6.25;;
13108;SDS011;6620;53.734;11.510;2023-03-20T12:37:58;5.93;;;5.35;;
13108;SDS011;6620;53.734;11.510;2023-03-20T12:40:29;8.10;;;5.32;;
13108;SDS011;6620;53.734;11.510;2023-03-20T12:45:27;8.07;;;6.53;;
13108;SDS011;6620;53.734;11.510;2023-03-20T13:01:06;7.97;;;6.43;;
13108;SDS011;6620;53.734;11.510;2023-03-20T13:06:48;6.10;;;5.30;;
13108;SDS011;6620;53.734;11.510;2023-03-20T13:11:20;7.97;;;5.57;;
13108;SDS011;6620;53.734;11.510;2023-03-20T13:18:40;6.20;;;5.20;;
13108;SDS011;6620;53.734;11.510;2023-03-20T13:21:09;4.85;;;3.00;;
13108;SDS011;6620;53.734;11.510;2023-03-20T13:23:54;6.68;;;4.60;;
13108;SDS011;6620;53.734;11.510;2023-03-20T13:37:04;6.70;;;3.80;;
13108;SDS011;6620;53.734;11.510;2023-03-20T13:39:29;4.43;;;3.45;;
13108;SDS011;6620;53.734;11.510;2023-03-20T13:41:57;5.90;;;3.55;;
13108;SDS011;6620;53.734;11.510;2023-03-20T13:44:23;6.47;;;3.78;;
13108;SDS011;6620;53.734;11.510;2023-03-20T13:46:58;6.88;;;3.58;;
13108;SDS011;6620;53.734;11.510;2023-03-20T13:52:02;6.18;;;4.05;;
13108;SDS011;6620;53.734;11.510;2023-03-20T14:04:35;7.20;;;5.22;;
13108;SDS011;6620;53.734;11.510;2023-03-20T14:07:01;9.73;;;4.50;;
13108;SDS011;6620;53.734;11.510;2023-03-20T14:09:36;6.80;;;5.10;;
13108;SDS011;6620;53.734;11.510;2023-03-20T14:12:11;9.23;;;5.15;;
13108;SDS011;6620;53.734;11.510;2023-03-20T14:14:45;7.53;;;4.47;;
13108;SDS011;6620;53.734;11.510;2023-03-20T14:17:17;9.65;;;5.30;;
13108;SDS011;6620;53.734;11.510;2023-03-20T14:19:43;8.32;;;5.68;;
13108;SDS011;6620;53.734;11.510;2023-03-20T14:22:15;8.93;;;5.50;;
13108;SDS011;6620;53.734;11.510;2023-03-20T14:24:41;7.45;;;5.60;;
13108;SDS011;6620;53.734;11.510;2023-03-20T14:27:14;10.93;;;6.28;;
13108;SDS011;6620;53.734;11.510;2023-03-20T14:29:41;8.60;;;5.63;;
13108;SDS011;6620;53.734;11.510;2023-03-20T14:34:44;8.17;;;6.10;;
13108;SDS011;6620;53.734;11.510;2023-03-20T14:37:59;7.22;;;5.43;;
13108;SDS011;6620;53.734;11.510;2023-03-20T14:40:00;10.70;;;7.55;;
13108;SDS011;6620;53.734;11.510;2023-03-20T14:42:36;9.18;;;6.70;;
13108;SDS011;6620;53.734;11.510;2023-03-20T14:54:59;17.27;;;8.52;;
13108;SDS011;6620;53.734;11.510;2023-03-20T14:57:37;10.73;;;5.93;;
13108;SDS011;6620;53.734;11.510;2023-03-20T15:00:02;10.77;;;6.17;;
13108;SDS011;6620;53.734;11.510;2023-03-20T15:02:33;10.73;;;6.82;;
13108;SDS011;6620;53.734;11.510;2023-03-20T15:04:59;11.10;;;7.37;;
13108;SDS011;6620;53.734;11.510;2023-03-20T15:07:26;8.18;;;6.00;;
13108;SDS011;6620;53.734;11.510;2023-03-20T15:09:53;12.35;;;5.90;;
13108;SDS011;6620;53.734;11.510;2023-03-20T15:12:20;8.35;;;6.72;;
13108;SDS011;6620;53.734;11.510;2023-03-20T15:14:51;11.60;;;7.18;;
13108;SDS011;6620;53.734;11.510;2023-03-20T15:17:36;12.60;;;6.13;;
13108;SDS011;6620;53.734;11.510;2023-03-20T15:22:45;9.35;;;6.32;;
13108;SDS011;6620;53.734;11.510;2023-03-20T15:25:14;10.82;;;6.72;;
13108;SDS011;6620;53.734;11.510;2023-03-20T15:27:40;10.05;;;6.28;;
13108;SDS011;6620;53.734;11.510;2023-03-20T15:30:05;9.38;;;6.18;;
13108;SDS011;6620;53.734;11.510;2023-03-20T15:32:31;10.50;;;6.25;;
13108;SDS011;6620;53.734;11.510;2023-03-20T15:34:57;11.63;;;6.43;;
13108;SDS011;6620;53.734;11.510;2023-03-20T15:37:22;13.33;;;6.60;;
13108;SDS011;6620;53.734;11.510;2023-03-20T15:39:49;10.38;;;5.53;;
13108;SDS011;6620;53.734;11.510;2023-03-20T15:42:17;11.88;;;6.30;;
13108;SDS011;6620;53.734;11.510;2023-03-20T15:44:44;13.60;;;5.38;;
13108;SDS011;6620;53.734;11.510;2023-03-20T15:49:35;10.23;;;5.40;;
13108;SDS011;6620;53.734;11.510;2023-03-20T15:52:03;10.68;;;6.18;;
13108;SDS011;6620;53.734;11.510;2023-03-20T15:54:29;9.93;;;5.60;;
13108;SDS011;6620;53.734;11.510;2023-03-20T15:56:56;12.13;;;5.60;;
13108;SDS011;6620;53.734;11.510;2023-03-20T15:59:23;10.45;;;5.68;;
13108;SDS011;6620;53.734;11.510;2023-03-20T16:01:50;14.40;;;5.90;;
13108;SDS011;6620;53.734;11.510;2023-03-20T16:04:16;11.68;;;6.07;;
13108;SDS011;6620;53.734;11.510;2023-03-20T16:06:46;8.35;;;5.05;;
13108;SDS011;6620;53.734;11.510;2023-03-20T16:09:12;10.23;;;5.45;;
13108;SDS011;6620;53.734;11.510;2023-03-20T16:11:39;8.30;;;5.13;;
13108;SDS011;6620;53.734;11.510;2023-03-20T16:14:05;8.85;;;5.32;;
13108;SDS011;6620;53.734;11.510;2023-03-20T16:16:31;12.30;;;4.78;;
13108;SDS011;6620;53.734;11.510;2023-03-20T16:19:01;11.73;;;7.10;;
13108;SDS011;6620;53.734;11.510;2023-03-20T16:21:27;12.60;;;5.60;;
13108;SDS011;6620;53.734;11.510;2023-03-20T16:23:55;10.98;;;5.30;;
13108;SDS011;6620;53.734;11.510;2023-03-20T16:26:21;10.32;;;4.80;;
13108;SDS011;6620;53.734;11.510;2023-03-20T16:28:51;8.25;;;5.47;;
13108;SDS011;6620;53.734;11.510;2023-03-20T16:31:33;12.82;;;6.05;;
13108;SDS011;6620;53.734;11.510;2023-03-20T16:33:59;15.73;;;6.38;;
13108;SDS011;6620;53.734;11.510;2023-03-20T16:36:29;10.80;;;5.53;;
13108;SDS011;6620;53.734;11.510;2023-03-20T16:41:30;8.03;;;5.90;;
13108;SDS011;6620;53.734;11.510;2023-03-20T16:43:57;10.48;;;6.20;;
13108;SDS011;6620;53.734;11.510;2023-03-20T16:46:24;9.73;;;6.00;;
13108;SDS011;6620;53.734;11.510;2023-03-20T16:48:50;13.13;;;6.15;;
13108;SDS011;6620;53.734;11.510;2023-03-20T16:51:20;6.15;;;5.40;;
13108;SDS011;6620;53.734;11.510;2023-03-20T16:53:50;9.10;;;5.65;;
13108;SDS011;6620;53.734;11.510;2023-03-20T16:56:28;11.15;;;6.55;;
13108;SDS011;6620;53.734;11.510;2023-03-20T16:58:56;12.25;;;6.63;;
13108;SDS011;6620;53.734;11.510;2023-03-20T17:01:22;8.80;;;5.97;;
13108;SDS011;6620;53.734;11.510;2023-03-20T17:03:52;12.55;;;6.65;;
13108;SDS011;6620;53.734;11.510;2023-03-20T17:08:53;10.80;;;5.82;;